createdAt,value
2022-09-20T00:00:35.273Z,15.15
2022-09-20T00:01:37.015Z,15.17
2022-09-20T00:02:38.736Z,15.15
2022-09-20T00:03:43.355Z,15.14
2022-09-20T00:04:45.203Z,15.12
2022-09-20T00:05:48.212Z,15.04
2022-09-20T00:06:49.871Z,15.18
2022-09-20T00:07:51.539Z,15.18
2022-09-20T00:08:53.924Z,15.07
2022-09-20T00:09:57.488Z,15.18
2022-09-20T00:11:06.393Z,15.20
2022-09-20T00:12:08.584Z,15.11
2022-09-20T00:13:13.076Z,15.22
2022-09-20T00:14:14.854Z,15.22
2022-09-20T00:15:16.553Z,15.21
2022-09-20T00:16:23.417Z,15.22
2022-09-20T00:17:25.137Z,15.21
2022-09-20T00:18:27.334Z,15.21
2022-09-20T00:19:28.982Z,15.20
2022-09-20T00:20:30.629Z,15.18
2022-09-20T00:21:34.788Z,15.20
2022-09-20T00:22:36.612Z,15.21
2022-09-20T00:23:38.280Z,15.22
2022-09-20T00:24:40.223Z,15.25
2022-09-20T00:25:42.364Z,15.12
2022-09-20T00:26:44.056Z,15.26
2022-09-20T00:27:45.960Z,15.27
2022-09-20T00:28:48.487Z,15.09
2022-09-20T00:29:50.148Z,15.30
2022-09-20T00:30:52.986Z,15.32
2022-09-20T00:31:54.777Z,15.32
2022-09-20T00:32:56.684Z,15.31
2022-09-20T00:34:17.619Z,15.34
2022-09-20T00:35:19.286Z,15.33
2022-09-20T00:36:21.150Z,15.36
2022-09-20T00:37:22.842Z,15.35
2022-09-20T00:38:24.490Z,15.28
2022-09-20T00:39:26.526Z,15.35
2022-09-20T00:40:29.090Z,15.38
2022-09-20T00:41:32.356Z,15.40
2022-09-20T00:42:34.319Z,15.31
2022-09-20T00:43:37.356Z,15.30
2022-09-20T00:44:43.319Z,15.39
2022-09-20T00:45:49.779Z,15.37
2022-09-20T00:46:52.044Z,15.37
2022-09-20T00:47:59.755Z,15.33
2022-09-20T00:49:28.853Z,15.31
2022-09-20T00:50:39.584Z,15.23
2022-09-20T00:51:45.844Z,15.28
2022-09-20T00:52:50.242Z,15.27
2022-09-20T00:53:55.125Z,15.16
2022-09-20T00:54:58.289Z,15.04
2022-09-20T00:56:26.994Z,15.19
2022-09-20T00:57:35.271Z,15.19
2022-09-20T00:58:44.364Z,15.16
2022-09-20T00:59:48.957Z,15.17
2022-09-20T01:00:54.166Z,15.16
2022-09-20T01:02:11.795Z,15.16
2022-09-20T01:03:16.848Z,15.13
2022-09-20T01:04:22.060Z,15.13
2022-09-20T01:05:25.224Z,15.13
2022-09-20T01:06:27.431Z,15.10
2022-09-20T01:07:29.967Z,14.97
2022-09-20T01:08:33.033Z,15.02
2022-09-20T01:09:35.045Z,15.01
2022-09-20T01:10:37.322Z,14.86
2022-09-20T01:11:40.746Z,14.74
2022-09-20T01:12:43.785Z,14.81
2022-09-20T01:13:45.448Z,14.82
2022-09-20T01:14:51.093Z,14.88
2022-09-20T01:15:53.689Z,14.87
2022-09-20T01:16:57.777Z,14.83
2022-09-20T01:18:01.043Z,14.85
2022-09-20T01:19:14.587Z,14.84
2022-09-20T01:20:19.507Z,14.78
2022-09-20T01:21:21.781Z,14.74
2022-09-20T01:22:35.155Z,14.80
2022-09-20T01:24:05.365Z,14.78
2022-09-20T01:25:13.889Z,14.78
2022-09-20T01:26:36.502Z,14.77
2022-09-20T01:27:50.888Z,14.77
2022-09-20T01:29:10.956Z,14.76
2022-09-20T01:30:18.721Z,14.69
2022-09-20T01:31:23.222Z,14.79
2022-09-20T01:32:33.847Z,14.78
2022-09-20T01:33:44.656Z,14.78
2022-09-20T01:34:50.693Z,14.78
2022-09-20T01:35:54.479Z,14.75
2022-09-20T01:37:04.956Z,14.70
2022-09-20T01:38:36.670Z,14.65
2022-09-20T01:39:51.593Z,14.58
2022-09-20T01:40:59.341Z,14.54
2022-09-20T01:42:14.368Z,14.35
2022-09-20T01:43:31.099Z,14.45
2022-09-20T01:44:41.548Z,14.45
2022-09-20T01:45:49.040Z,14.44
2022-09-20T01:47:00.086Z,14.42
2022-09-20T01:48:04.619Z,14.34
2022-09-20T01:49:37.302Z,14.34
2022-09-20T01:50:57.332Z,14.32
2022-09-20T01:52:17.091Z,14.33
2022-09-20T01:53:38.081Z,14.28
2022-09-20T01:54:58.106Z,14.30
2022-09-20T01:56:33.602Z,14.24
2022-09-20T01:58:19.660Z,14.21
2022-09-20T01:59:52.206Z,14.16
2022-09-20T02:01:05.985Z,14.20
2022-09-20T02:02:32.609Z,14.19
2022-09-20T02:03:43.002Z,14.16
2022-09-20T02:05:00.002Z,14.19
2022-09-20T02:06:48.916Z,14.17
2022-09-20T02:08:03.354Z,14.16
2022-09-20T02:09:07.908Z,14.19
2022-09-20T02:10:32.573Z,14.19
2022-09-20T02:11:42.267Z,14.22
2022-09-20T02:12:56.857Z,14.20
2022-09-20T02:14:36.879Z,14.13
2022-09-20T02:16:23.785Z,14.12
2022-09-20T02:17:42.156Z,13.99
2022-09-20T02:19:05.211Z,14.05
2022-09-20T02:20:27.502Z,14.00
2022-09-20T02:21:31.862Z,13.95
2022-09-20T02:22:53.401Z,13.92
2022-09-20T02:24:27.398Z,13.85
2022-09-20T02:26:22.912Z,13.77
2022-09-20T02:27:50.637Z,13.72
2022-09-20T02:28:59.576Z,13.71
2022-09-20T02:30:10.388Z,13.63
2022-09-20T02:31:30.659Z,13.63
2022-09-20T02:32:41.224Z,13.61
2022-09-20T02:34:04.651Z,13.57
2022-09-20T02:35:09.120Z,13.55
2022-09-20T02:36:38.186Z,13.52
2022-09-20T02:37:58.846Z,13.51
2022-09-20T02:39:16.086Z,13.51
2022-09-20T02:40:36.071Z,13.50
2022-09-20T02:41:51.914Z,13.44
2022-09-20T02:43:04.035Z,13.47
2022-09-20T02:44:42.802Z,13.46
2022-09-20T02:46:29.270Z,13.44
2022-09-20T02:47:38.602Z,13.45
2022-09-20T02:48:56.339Z,13.36
2022-09-20T02:50:35.491Z,13.45
2022-09-20T02:51:43.885Z,13.44
2022-09-20T02:52:51.340Z,13.44
2022-09-20T02:54:25.277Z,13.43
2022-09-20T02:55:39.126Z,13.43
2022-09-20T02:57:11.740Z,13.43
2022-09-20T02:58:31.883Z,13.42
2022-09-20T02:59:44.430Z,13.40
2022-09-20T03:01:02.786Z,13.38
2022-09-20T03:02:21.025Z,13.36
2022-09-20T03:03:45.785Z,13.38
2022-09-20T03:05:09.769Z,13.35
2022-09-20T03:06:38.985Z,13.27
2022-09-20T03:08:08.204Z,13.28
2022-09-20T03:09:38.415Z,13.26
2022-09-20T03:10:59.726Z,13.23
2022-09-20T03:12:04.142Z,13.25
2022-09-20T03:13:17.882Z,13.26
2022-09-20T03:14:25.145Z,13.26
2022-09-20T03:16:04.366Z,13.23
2022-09-20T03:17:15.847Z,13.25
2022-09-20T03:18:27.422Z,13.25
2022-09-20T03:20:00.983Z,13.28
2022-09-20T03:21:40.464Z,13.25
2022-09-20T03:22:51.809Z,13.24
2022-09-20T03:24:21.380Z,13.25
2022-09-20T03:25:53.756Z,13.25
2022-09-20T03:27:02.807Z,13.14
2022-09-20T03:28:46.034Z,13.25
2022-09-20T03:30:01.068Z,13.25
2022-09-20T03:31:17.820Z,13.27
2022-09-20T03:32:47.431Z,13.28
2022-09-20T03:34:27.882Z,13.13
2022-09-20T03:35:58.790Z,13.17
2022-09-20T03:37:11.028Z,13.25
2022-09-20T03:38:21.682Z,13.22
2022-09-20T03:39:57.463Z,13.20
2022-09-20T03:40:59.131Z,13.19
2022-09-20T03:42:19.338Z,13.21
2022-09-20T03:44:01.992Z,13.21
2022-09-20T03:45:12.624Z,13.18
2022-09-20T03:46:20.273Z,13.18
2022-09-20T03:47:40.552Z,13.18
2022-09-20T03:48:57.297Z,13.21
2022-09-20T03:50:14.106Z,13.17
2022-09-20T03:51:31.727Z,13.19
2022-09-20T03:53:26.680Z,13.27
2022-09-20T03:54:42.567Z,13.25
2022-09-20T03:55:53.623Z,13.20
2022-09-20T03:56:55.593Z,13.22
2022-09-20T03:58:18.711Z,13.23
2022-09-20T03:59:29.567Z,13.25
2022-09-20T04:00:40.001Z,13.27
2022-09-20T04:02:03.157Z,13.26
2022-09-20T04:03:28.423Z,13.23
2022-09-20T04:04:53.228Z,13.25
2022-09-20T04:06:13.097Z,13.27
2022-09-20T04:07:26.658Z,13.26
2022-09-20T04:09:05.177Z,13.22
2022-09-20T04:10:35.214Z,13.22
2022-09-20T04:12:06.013Z,13.29
2022-09-20T04:13:32.404Z,13.27
2022-09-20T04:14:54.684Z,13.33
2022-09-20T04:16:06.662Z,13.35
2022-09-20T04:17:14.138Z,13.35
2022-09-20T04:18:57.478Z,13.38
2022-09-20T04:20:07.274Z,13.41
2022-09-20T04:21:32.611Z,13.42
2022-09-20T04:22:35.115Z,13.35
2022-09-20T04:23:39.858Z,13.43
2022-09-20T04:24:57.254Z,13.44
2022-09-20T04:26:02.276Z,13.45
2022-09-20T04:27:14.765Z,13.47
2022-09-20T04:28:31.217Z,13.50
2022-09-20T04:29:55.968Z,13.49
2022-09-20T04:31:07.125Z,13.47
2022-09-20T04:32:27.021Z,13.60
2022-09-20T04:33:35.860Z,13.57
2022-09-20T04:35:16.187Z,13.61
2022-09-20T04:36:54.778Z,13.64
2022-09-20T04:37:57.253Z,13.64
2022-09-20T04:39:47.665Z,13.69
2022-09-20T04:41:20.705Z,13.80
2022-09-20T04:42:38.638Z,13.96
2022-09-20T04:43:52.399Z,14.16
2022-09-20T04:45:16.805Z,14.31
2022-09-20T04:47:00.141Z,14.58
2022-09-20T04:48:20.107Z,14.80
2022-09-20T04:49:27.559Z,14.97
2022-09-20T04:50:47.854Z,15.09
2022-09-20T04:52:21.163Z,15.22
2022-09-20T04:53:44.962Z,15.45
2022-09-20T04:55:01.724Z,15.58
2022-09-20T04:56:15.529Z,15.73
2022-09-20T04:57:41.785Z,15.90
2022-09-20T04:59:28.444Z,16.04
2022-09-20T05:00:55.292Z,16.22
2022-09-20T05:02:03.755Z,16.39
2022-09-20T05:03:34.582Z,16.51
2022-09-20T05:04:49.159Z,16.59
2022-09-20T05:06:11.425Z,16.70
2022-09-20T05:07:30.682Z,16.87
2022-09-20T05:09:02.604Z,16.89
2022-09-20T05:10:24.580Z,16.69
2022-09-20T05:11:43.538Z,16.38
2022-09-20T05:13:13.272Z,16.31
2022-09-20T05:14:42.150Z,16.33
2022-09-20T05:15:49.892Z,16.62
2022-09-20T05:17:23.447Z,16.86
2022-09-20T05:18:43.006Z,16.84
2022-09-20T05:19:55.955Z,17.18
2022-09-20T05:21:06.588Z,17.35
2022-09-20T05:22:30.119Z,17.30
2022-09-20T05:23:40.850Z,17.26
2022-09-20T05:24:52.793Z,17.15
2022-09-20T05:26:09.435Z,17.05
2022-09-20T05:27:38.316Z,17.03
2022-09-20T05:29:10.196Z,16.93
2022-09-20T05:30:33.618Z,16.74
2022-09-20T05:31:41.501Z,16.61
2022-09-20T05:33:09.143Z,16.52
2022-09-20T05:34:34.980Z,16.48
2022-09-20T05:35:54.768Z,16.40
2022-09-20T05:37:08.291Z,16.33
2022-09-20T05:38:31.413Z,16.22
2022-09-20T05:39:42.489Z,16.18
2022-09-20T05:41:14.331Z,16.16
2022-09-20T05:42:20.999Z,16.15
2022-09-20T05:43:33.576Z,16.06
2022-09-20T05:45:07.324Z,15.86
2022-09-20T05:46:17.813Z,15.81
2022-09-20T05:47:32.743Z,15.81
2022-09-20T05:48:40.055Z,15.78
2022-09-20T05:50:00.042Z,15.76
2022-09-20T05:51:47.371Z,15.66
2022-09-20T05:53:15.144Z,15.65
2022-09-20T05:54:31.938Z,15.69
2022-09-20T05:56:10.819Z,16.00
2022-09-20T05:57:30.863Z,16.29
2022-09-20T05:58:44.661Z,16.40
2022-09-20T06:00:04.672Z,16.41
2022-09-20T06:01:19.825Z,16.48
2022-09-20T06:02:41.804Z,16.68
2022-09-20T06:03:55.949Z,16.83
2022-09-20T06:05:17.403Z,17.06
2022-09-20T06:06:21.445Z,17.18
2022-09-20T06:07:35.531Z,17.37
2022-09-20T06:09:10.966Z,17.26
2022-09-20T06:10:47.660Z,17.31
2022-09-20T06:12:01.842Z,17.54
2022-09-20T06:13:24.435Z,17.54
2022-09-20T06:14:54.979Z,17.37
2022-09-20T06:16:09.733Z,17.40
2022-09-20T06:17:27.618Z,17.32
2022-09-20T06:18:32.338Z,17.32
2022-09-20T06:19:46.052Z,17.26
2022-09-20T06:21:15.430Z,17.16
2022-09-20T06:22:27.976Z,17.12
2022-09-20T06:23:31.766Z,17.10
2022-09-20T06:24:52.189Z,17.38
2022-09-20T06:26:02.284Z,17.61
2022-09-20T06:27:15.902Z,17.66
2022-09-20T06:28:22.979Z,17.73
2022-09-20T06:29:35.272Z,17.87
2022-09-20T06:30:50.370Z,17.84
2022-09-20T06:31:53.799Z,17.83
2022-09-20T06:33:00.974Z,17.76
2022-09-20T06:34:13.731Z,17.63
2022-09-20T06:35:15.495Z,17.58
2022-09-20T06:36:52.131Z,17.42
2022-09-20T06:38:26.159Z,17.27
2022-09-20T06:39:57.726Z,17.11
2022-09-20T06:41:19.503Z,16.91
2022-09-20T06:42:25.314Z,16.84
2022-09-20T06:43:31.473Z,16.79
2022-09-20T06:44:33.140Z,16.75
2022-09-20T06:45:35.946Z,16.73
2022-09-20T06:46:38.602Z,16.58
2022-09-20T06:47:40.617Z,16.55
2022-09-20T06:48:42.282Z,16.58
2022-09-20T06:49:47.077Z,16.64
2022-09-20T06:50:48.724Z,16.91
2022-09-20T06:51:50.892Z,17.21
2022-09-20T06:52:55.756Z,17.37
2022-09-20T06:53:57.866Z,17.38
2022-09-20T06:54:59.566Z,17.46
2022-09-20T06:56:02.396Z,17.48
2022-09-20T06:57:06.641Z,17.47
2022-09-20T06:58:09.961Z,17.44
2022-09-20T06:59:12.900Z,17.43
2022-09-20T07:00:16.118Z,17.46
2022-09-20T07:01:29.319Z,17.47
2022-09-20T07:02:32.127Z,17.66
2022-09-20T07:03:33.893Z,18.02
2022-09-20T07:04:35.808Z,18.17
2022-09-20T07:05:38.958Z,18.31
2022-09-20T07:06:41.026Z,18.43
2022-09-20T07:07:44.326Z,18.56
2022-09-20T07:08:47.004Z,18.73
2022-09-20T07:09:48.661Z,18.96
2022-09-20T07:10:51.212Z,19.20
2022-09-20T07:11:52.879Z,19.35
2022-09-20T07:13:02.179Z,19.37
2022-09-20T07:14:04.053Z,19.37
2022-09-20T07:15:07.357Z,19.25
2022-09-20T07:16:12.897Z,19.24
2022-09-20T07:17:14.871Z,19.19
2022-09-20T07:18:17.632Z,19.38
2022-09-20T07:19:19.483Z,19.72
2022-09-20T07:20:21.875Z,19.79
2022-09-20T07:21:24.548Z,19.83
2022-09-20T07:22:27.161Z,19.89
2022-09-20T07:23:30.334Z,19.83
2022-09-20T07:24:32.506Z,19.98
2022-09-20T07:25:34.791Z,19.87
2022-09-20T07:26:37.345Z,19.54
2022-09-20T07:27:39.886Z,19.62
2022-09-20T07:28:41.545Z,19.66
2022-09-20T07:29:43.690Z,19.65
2022-09-20T07:30:45.839Z,19.67
2022-09-20T07:31:48.144Z,19.58
2022-09-20T07:32:50.473Z,19.38
2022-09-20T07:33:52.625Z,19.40
2022-09-20T07:34:54.548Z,19.36
2022-09-20T07:35:56.257Z,19.21
2022-09-20T07:36:59.795Z,18.89
2022-09-20T07:38:02.723Z,19.00
2022-09-20T07:39:04.448Z,19.03
2022-09-20T07:40:07.251Z,19.35
2022-09-20T07:41:10.709Z,19.66
2022-09-20T07:42:13.678Z,19.99
2022-09-20T07:43:15.358Z,20.40
2022-09-20T07:44:22.266Z,20.64
2022-09-20T07:45:24.175Z,21.04
2022-09-20T07:46:25.868Z,21.32
2022-09-20T07:47:28.069Z,21.45
2022-09-20T07:48:32.369Z,21.34
2022-09-20T07:49:34.272Z,21.33
2022-09-20T07:50:36.477Z,21.54
2022-09-20T07:51:38.107Z,21.74
2022-09-20T07:52:39.798Z,21.72
2022-09-20T07:53:41.526Z,21.83
2022-09-20T07:54:43.162Z,21.94
2022-09-20T07:55:55.778Z,21.79
2022-09-20T07:56:57.482Z,21.74
2022-09-20T07:57:59.570Z,21.97
2022-09-20T07:59:01.289Z,22.35
2022-09-20T08:00:08.383Z,22.61
2022-09-20T08:01:13.584Z,22.88
2022-09-20T08:02:16.310Z,23.06
2022-09-20T08:03:18.126Z,22.94
2022-09-20T08:04:19.877Z,22.87
2022-09-20T08:05:21.537Z,22.58
2022-09-20T08:06:23.726Z,22.49
2022-09-20T08:07:25.520Z,22.46
2022-09-20T08:08:29.167Z,22.46
2022-09-20T08:09:30.844Z,22.54
2022-09-20T08:10:33.132Z,22.63
2022-09-20T08:11:35.933Z,22.84
2022-09-20T08:14:08.778Z,22.91
2022-09-20T08:15:12.146Z,23.20
2022-09-20T08:16:14.973Z,23.52
2022-09-20T08:17:16.729Z,23.74
2022-09-20T08:18:18.979Z,24.02
2022-09-20T08:19:23.437Z,23.90
2022-09-20T08:20:25.290Z,23.99
2022-09-20T08:21:31.688Z,23.79
2022-09-20T08:22:34.941Z,23.43
2022-09-20T08:23:39.042Z,23.40
2022-09-20T08:24:40.925Z,23.28
2022-09-20T08:25:42.626Z,23.34
2022-09-20T08:26:44.721Z,23.47
2022-09-20T08:27:53.132Z,23.67
2022-09-20T08:28:57.579Z,23.78
2022-09-20T08:29:59.741Z,23.76
2022-09-20T08:31:06.150Z,23.97
2022-09-20T08:32:08.178Z,23.96
2022-09-20T08:33:11.628Z,23.86
2022-09-20T08:34:15.256Z,24.06
2022-09-20T08:35:17.758Z,24.18
2022-09-20T08:36:22.249Z,24.35
2022-09-20T08:37:24.158Z,24.46
2022-09-20T08:39:58.327Z,24.58
2022-09-20T08:41:09.629Z,24.95
2022-09-20T08:42:34.935Z,25.23
2022-09-20T08:43:45.603Z,25.08
2022-09-20T08:44:58.639Z,25.13
2022-09-20T08:46:06.033Z,25.42
2022-09-20T08:47:19.166Z,25.38
2022-09-20T08:48:23.881Z,25.40
2022-09-20T08:49:28.303Z,25.46
2022-09-20T08:50:30.128Z,25.53
2022-09-20T08:51:34.764Z,25.62
2022-09-20T08:52:40.325Z,25.73
2022-09-20T08:54:04.609Z,25.71
2022-09-20T08:55:17.138Z,25.90
2022-09-20T08:56:20.430Z,25.92
2022-09-20T08:57:22.237Z,26.00
2022-09-20T08:58:24.509Z,25.96
2022-09-20T08:59:26.204Z,25.82
2022-09-20T09:00:34.534Z,25.56
2022-09-20T09:01:36.775Z,25.50
2022-09-20T09:02:39.449Z,25.71
2022-09-20T09:03:41.187Z,25.72
2022-09-20T09:04:44.850Z,25.48
2022-09-20T09:06:01.318Z,25.48
2022-09-20T09:07:04.036Z,25.20
2022-09-20T09:08:16.679Z,25.09
2022-09-20T09:09:25.464Z,24.96
2022-09-20T09:10:34.654Z,25.17
2022-09-20T09:11:36.596Z,25.13
2022-09-20T09:12:38.336Z,25.13
2022-09-20T09:13:54.687Z,25.25
2022-09-20T09:15:30.177Z,25.40
2022-09-20T09:16:35.571Z,25.58
2022-09-20T09:17:37.802Z,25.43
2022-09-20T09:18:42.155Z,25.32
2022-09-20T09:19:48.296Z,25.27
2022-09-20T09:20:51.477Z,25.22
2022-09-20T09:22:01.593Z,25.23
2022-09-20T09:23:07.009Z,25.33
2022-09-20T09:24:19.490Z,25.38
2022-09-20T09:25:22.569Z,25.21
2022-09-20T09:26:25.979Z,25.16
2022-09-20T09:27:27.653Z,25.01
2022-09-20T09:28:31.856Z,25.08
2022-09-20T09:29:35.001Z,25.17
2022-09-20T09:30:39.955Z,25.35
2022-09-20T09:31:42.012Z,25.45
2022-09-20T09:32:44.228Z,25.44
2022-09-20T09:33:47.131Z,25.43
2022-09-20T09:34:48.914Z,25.47
2022-09-20T09:35:53.669Z,25.20
2022-09-20T09:36:56.093Z,25.15
2022-09-20T09:38:01.341Z,25.22
2022-09-20T09:39:37.128Z,25.16
2022-09-20T09:40:50.922Z,25.19
2022-09-20T09:41:53.064Z,25.32
2022-09-20T09:43:00.609Z,25.39
2022-09-20T09:44:10.032Z,25.44
2022-09-20T09:45:27.075Z,25.50
2022-09-20T09:46:33.708Z,25.73
2022-09-20T09:47:37.699Z,25.87
2022-09-20T09:48:40.424Z,25.92
2022-09-20T09:50:01.891Z,25.97
2022-09-20T09:51:11.772Z,25.89
2022-09-20T09:52:27.980Z,25.84
2022-09-20T09:53:29.721Z,25.72
2022-09-20T09:54:37.472Z,25.81
2022-09-20T09:55:54.384Z,25.82
2022-09-20T09:57:34.223Z,25.88
2022-09-20T09:58:59.357Z,25.96
2022-09-20T10:00:21.553Z,25.84
2022-09-20T10:02:15.224Z,25.88
2022-09-20T10:03:36.732Z,25.76
2022-09-20T10:04:44.098Z,25.72
2022-09-20T10:06:07.742Z,25.77
2022-09-20T10:07:43.071Z,25.66
2022-09-20T10:09:03.391Z,25.85
2022-09-20T10:10:22.558Z,25.87
2022-09-20T10:12:05.751Z,25.98
2022-09-20T10:13:40.772Z,26.05
2022-09-20T10:15:07.266Z,26.35
2022-09-20T10:16:18.916Z,26.53
2022-09-20T10:17:31.425Z,26.30
2022-09-20T10:19:06.586Z,26.21
2022-09-20T10:20:25.464Z,26.29
2022-09-20T10:21:53.560Z,26.40
2022-09-20T10:23:39.378Z,26.42
2022-09-20T10:24:35.355Z,26.46
2022-09-20T10:26:14.277Z,26.41
2022-09-20T10:27:28.156Z,26.27
2022-09-20T10:28:50.507Z,26.28
2022-09-20T10:30:24.336Z,26.07
2022-09-20T10:31:53.401Z,26.05
2022-09-20T10:33:14.932Z,25.99
2022-09-20T10:34:19.143Z,26.06
2022-09-20T10:36:16.901Z,26.13
2022-09-20T10:37:49.721Z,25.94
2022-09-20T10:39:10.108Z,25.91
2022-09-20T10:40:14.895Z,25.78
2022-09-20T10:42:05.217Z,25.49
2022-09-20T10:43:18.047Z,25.44
2022-09-20T10:44:19.733Z,25.46
2022-09-20T10:47:11.403Z,25.87
2022-09-20T10:48:19.643Z,26.10
2022-09-20T10:49:41.300Z,26.21
2022-09-20T10:50:54.511Z,25.94
2022-09-20T10:52:20.518Z,25.91
2022-09-20T10:53:23.256Z,25.87
2022-09-20T10:55:06.751Z,25.73
2022-09-20T10:56:35.895Z,25.76
2022-09-20T10:58:03.425Z,25.53
2022-09-20T10:59:07.805Z,25.56
2022-09-20T11:00:21.571Z,25.51
2022-09-20T11:01:43.461Z,25.67
2022-09-20T11:02:50.937Z,25.86
2022-09-20T11:04:14.175Z,26.14
2022-09-20T11:05:37.277Z,26.30
2022-09-20T11:06:44.833Z,26.12
2022-09-20T11:07:46.514Z,26.03
2022-09-20T11:08:54.321Z,26.08
2022-09-20T11:10:02.790Z,26.03
2022-09-20T11:11:19.892Z,25.82
2022-09-20T11:12:38.446Z,25.67
2022-09-20T11:13:47.373Z,25.67
2022-09-20T11:14:55.151Z,25.67
2022-09-20T11:16:33.063Z,25.49
2022-09-20T11:17:55.508Z,25.11
2022-09-20T11:19:10.338Z,25.14
2022-09-20T11:20:27.273Z,25.11
2022-09-20T11:21:28.893Z,25.04
2022-09-20T11:22:40.952Z,25.01
2022-09-20T11:23:51.097Z,24.66
2022-09-20T11:25:14.794Z,24.55
2022-09-20T11:26:31.412Z,24.42
2022-09-20T11:27:39.295Z,24.39
2022-09-20T11:28:46.697Z,24.42
2022-09-20T11:30:29.633Z,24.40
2022-09-20T11:31:41.905Z,24.25
2022-09-20T11:32:51.305Z,24.17
2022-09-20T11:34:26.043Z,24.25
2022-09-20T11:35:35.584Z,24.33
2022-09-20T11:36:52.371Z,24.37
2022-09-20T11:38:00.798Z,24.28
2022-09-20T11:39:11.679Z,24.34
2022-09-20T11:40:28.108Z,24.39
2022-09-20T11:41:31.427Z,24.41
2022-09-20T11:42:39.479Z,24.32
2022-09-20T11:43:45.468Z,24.32
2022-09-20T11:44:47.608Z,24.17
2022-09-20T11:45:55.075Z,24.02
2022-09-20T11:47:49.744Z,23.93
2022-09-20T11:49:01.232Z,23.78
2022-09-20T11:50:56.872Z,23.70
2022-09-20T11:52:30.360Z,23.74
2022-09-20T11:54:11.552Z,23.62
2022-09-20T11:55:34.730Z,23.69
2022-09-20T11:56:37.937Z,23.57
2022-09-20T11:57:40.026Z,23.57
2022-09-20T11:58:51.044Z,23.55
2022-09-20T11:59:55.192Z,23.53
2022-09-20T12:00:59.301Z,23.56
2022-09-20T12:02:06.544Z,23.53
2022-09-20T12:03:38.078Z,23.41
2022-09-20T12:04:44.719Z,23.27
2022-09-20T12:05:47.288Z,23.06
2022-09-20T12:07:03.495Z,22.90
2022-09-20T12:08:24.756Z,22.73
2022-09-20T12:09:35.323Z,22.62
2022-09-20T12:10:39.886Z,22.66
2022-09-20T12:11:42.092Z,22.40
2022-09-20T12:12:47.127Z,22.64
2022-09-20T12:14:05.576Z,22.65
2022-09-20T12:15:28.054Z,22.70
2022-09-20T12:16:37.547Z,22.63
2022-09-20T12:17:48.375Z,22.62
2022-09-20T12:18:54.040Z,22.61
2022-09-20T12:19:55.946Z,22.56
2022-09-20T12:20:57.573Z,22.47
2022-09-20T12:21:59.162Z,22.39
2022-09-20T12:23:40.968Z,22.39
2022-09-20T12:24:45.434Z,22.24
2022-09-20T12:26:03.436Z,22.11
2022-09-20T12:27:44.076Z,21.94
2022-09-20T12:28:50.158Z,21.96
2022-09-20T12:30:03.438Z,21.97
2022-09-20T12:31:38.576Z,21.99
2022-09-20T12:32:46.912Z,22.02
2022-09-20T12:34:16.188Z,22.09
2022-09-20T12:35:36.155Z,22.14
2022-09-20T12:36:43.314Z,22.21
2022-09-20T12:37:45.009Z,22.23
2022-09-20T12:38:49.616Z,22.20
2022-09-20T12:39:55.676Z,22.28
2022-09-20T12:41:08.518Z,22.00
2022-09-20T12:42:10.127Z,22.25
2022-09-20T12:43:21.001Z,22.22
2022-09-20T12:44:42.302Z,22.15
2022-09-20T12:45:52.244Z,22.12
2022-09-20T12:46:58.627Z,22.09
2022-09-20T12:48:00.488Z,22.11
2022-09-20T12:50:02.387Z,22.08
2022-09-20T12:51:37.310Z,22.07
2022-09-20T12:52:51.190Z,22.09
2022-09-20T12:54:11.643Z,22.11
2022-09-20T12:55:41.357Z,22.17
2022-09-20T12:56:46.934Z,22.02
2022-09-20T12:57:54.759Z,22.24
2022-09-20T12:58:57.561Z,22.27
2022-09-20T13:00:02.013Z,22.23
2022-09-20T13:01:03.682Z,22.21
2022-09-20T13:02:45.193Z,22.27
2022-09-20T13:03:48.806Z,22.33
2022-09-20T13:04:55.554Z,22.33
2022-09-20T13:06:06.460Z,22.35
2022-09-20T13:07:35.036Z,22.42
2022-09-20T13:08:47.133Z,22.34
2022-09-20T13:09:50.076Z,22.44
2022-09-20T13:11:14.270Z,22.42
2022-09-20T13:12:16.406Z,22.43
2022-09-20T13:13:44.638Z,22.50
2022-09-20T13:14:47.784Z,22.47
2022-09-20T13:15:53.900Z,22.50
2022-09-20T13:17:00.816Z,22.59
2022-09-20T13:18:02.872Z,22.59
2022-09-20T13:19:12.883Z,22.46
2022-09-20T13:20:19.573Z,22.55
2022-09-20T13:21:22.016Z,22.57
2022-09-20T13:22:37.251Z,22.58
2022-09-20T13:23:50.089Z,22.58
2022-09-20T13:24:56.834Z,22.68
2022-09-20T13:25:59.040Z,22.70
2022-09-20T13:27:06.661Z,22.72
2022-09-20T13:28:21.194Z,22.75
2022-09-20T13:29:32.014Z,22.82
2022-09-20T13:30:33.891Z,22.85
2022-09-20T13:31:36.214Z,22.77
2022-09-20T13:32:41.790Z,22.81
2022-09-20T13:33:43.493Z,22.79
2022-09-20T13:34:48.182Z,22.82
2022-09-20T13:35:54.726Z,22.80
2022-09-20T13:37:00.963Z,22.93
2022-09-20T13:38:07.469Z,22.99
2022-09-20T13:39:09.414Z,23.02
2022-09-20T13:40:22.111Z,23.08
2022-09-20T13:41:27.771Z,23.07
2022-09-20T13:42:30.079Z,23.12
2022-09-20T13:43:47.026Z,23.10
2022-09-20T13:44:49.531Z,23.06
2022-09-20T13:46:11.530Z,23.10
2022-09-20T13:47:30.775Z,23.14
2022-09-20T13:48:32.681Z,23.09
2022-09-20T13:49:34.417Z,23.12
2022-09-20T13:50:40.938Z,23.11
2022-09-20T13:51:45.058Z,23.11
2022-09-20T13:52:50.280Z,23.06
2022-09-20T13:53:52.370Z,23.21
2022-09-20T13:54:55.405Z,23.27
2022-09-20T13:55:57.741Z,23.26
2022-09-20T13:57:06.831Z,23.28
2022-09-20T13:58:30.135Z,23.34
2022-09-20T13:59:41.893Z,23.37
2022-09-20T14:00:50.108Z,23.44
2022-09-20T14:01:54.917Z,23.49
2022-09-20T14:02:58.557Z,23.37
2022-09-20T14:04:08.097Z,23.37
2022-09-20T14:05:19.100Z,23.39
2022-09-20T14:06:29.794Z,23.33
2022-09-20T14:07:32.562Z,23.40
2022-09-20T14:08:47.928Z,23.38
2022-09-20T14:09:50.500Z,23.45
2022-09-20T14:11:24.310Z,23.47
2022-09-20T14:12:27.856Z,23.36
2022-09-20T14:13:31.526Z,23.34
2022-09-20T14:14:35.236Z,23.31
2022-09-20T14:15:41.157Z,23.52
2022-09-20T14:16:46.798Z,23.54
2022-09-20T14:17:49.176Z,23.58
2022-09-20T14:18:51.354Z,23.57
2022-09-20T14:19:55.458Z,23.56
2022-09-20T14:20:58.326Z,23.36
2022-09-20T14:22:05.225Z,23.26
2022-09-20T14:23:15.513Z,23.16
2022-09-20T14:24:17.663Z,23.20
2022-09-20T14:25:25.497Z,23.11
2022-09-20T14:26:33.717Z,23.11
2022-09-20T14:27:35.478Z,23.15
2022-09-20T14:28:37.129Z,23.13
2022-09-20T14:29:47.810Z,23.08
2022-09-20T14:30:49.720Z,23.16
2022-09-20T14:31:51.430Z,23.06
2022-09-20T14:32:56.591Z,22.99
2022-09-20T14:34:03.963Z,23.05
2022-09-20T14:35:19.220Z,23.06
2022-09-20T14:36:23.970Z,23.12
2022-09-20T14:37:42.605Z,23.09
2022-09-20T14:38:50.730Z,23.06
2022-09-20T14:40:02.051Z,22.99
2022-09-20T14:41:03.874Z,23.03
2022-09-20T14:42:20.786Z,22.98
2022-09-20T14:43:31.545Z,22.96
2022-09-20T14:44:34.027Z,23.01
2022-09-20T14:45:39.220Z,23.05
2022-09-20T14:46:41.080Z,23.03
2022-09-20T14:48:09.329Z,23.00
2022-09-20T14:49:24.248Z,22.98
2022-09-20T14:50:36.915Z,22.84
2022-09-20T14:51:39.185Z,22.85
2022-09-20T14:52:43.843Z,22.83
2022-09-20T14:53:48.606Z,22.83
2022-09-20T14:55:21.654Z,22.89
2022-09-20T14:56:33.549Z,22.91
2022-09-20T14:57:35.863Z,22.93
2022-09-20T14:59:11.963Z,22.93
2022-09-20T15:00:16.611Z,22.94
2022-09-20T15:01:24.554Z,22.91
2022-09-20T15:02:27.505Z,22.84
2022-09-20T15:03:36.928Z,22.74
2022-09-20T15:04:40.367Z,22.71
2022-09-20T15:05:51.047Z,22.68
2022-09-20T15:06:53.331Z,22.64
2022-09-20T15:07:56.896Z,22.66
2022-09-20T15:09:00.356Z,22.59
2022-09-20T15:10:02.242Z,22.48
2022-09-20T15:11:04.357Z,22.33
2022-09-20T15:12:12.290Z,22.29
2022-09-20T15:13:14.210Z,22.24
2022-09-20T15:14:15.963Z,22.14
2022-09-20T15:15:19.111Z,22.04
2022-09-20T15:16:21.302Z,21.99
2022-09-20T15:17:23.664Z,21.94
2022-09-20T15:18:34.494Z,21.97
2022-09-20T15:19:36.155Z,21.87
2022-09-20T15:20:37.811Z,21.81
2022-09-20T15:21:39.747Z,21.77
2022-09-20T15:22:41.871Z,21.70
2022-09-20T15:23:44.030Z,21.61
2022-09-20T15:24:45.987Z,21.55
2022-09-20T15:25:52.612Z,21.51
2022-09-20T15:26:54.507Z,21.37
2022-09-20T15:27:57.956Z,21.48
2022-09-20T15:29:00.793Z,21.47
2022-09-20T15:30:02.460Z,21.48
2022-09-20T15:31:04.509Z,21.41
2022-09-20T15:32:06.930Z,21.49
2022-09-20T15:33:10.157Z,21.46
2022-09-20T15:34:13.042Z,21.33
2022-09-20T15:35:15.120Z,21.31
2022-09-20T15:36:17.235Z,21.31
2022-09-20T15:37:18.894Z,21.21